Time;durP1;ratioP1;P1;durP2;ratioP2;P2;SDS_P1;SDS_P2;PMS_P1;PMS_P2;Temp;Humidity;BMP_temperature;BMP_pressure;BME280_temperature;BME280_humidity;BME280_pressure;Samples;Min_cycle;Max_cycle;Signal;HPM_P1;HPM_P2
2023/10/12 00:00:41;;;;;;;11.45;7.93;;;19.50;82.20;;;;;;10485171;28;20039;-59
2023/10/12 00:05:45;;;;;;;9.52;8.07;;;19.50;82.20;;;;;;10495499;28;20404;-59
2023/10/12 00:10:46;;;;;;;8.02;7.15;;;19.40;82.10;;;;;;10495339;28;20088;-59
2023/10/12 00:15:47;;;;;;;8.35;7.50;;;19.50;82.10;;;;;;10494513;28;20063;-59
2023/10/12 00:20:53;;;;;;;9.77;7.32;;;19.40;82.00;;;;;;10495192;28;20107;-59
2023/10/12 00:25:54;;;;;;;9.68;6.60;;;19.40;82.10;;;;;;10493384;28;20086;-59
2023/10/12 00:30:57;;;;;;;8.75;7.55;;;19.50;82.10;;;;;;10494404;28;20025;-59
2023/10/12 00:36:04;;;;;;;9.38;6.85;;;19.40;82.10;;;;;;10494025;28;20036;-59
2023/10/12 00:41:04;;;;;;;9.68;7.68;;;19.50;82.00;;;;;;10494728;28;20426;-59
2023/10/12 00:46:58;;;;;;;9.57;7.43;;;19.40;82.00;;;;;;10493325;28;20043;-59
2023/10/12 00:51:31;;;;;;;8.60;6.95;;;19.40;82.00;;;;;;10488002;28;20032;-59
2023/10/12 00:56:31;;;;;;;9.65;8.18;;;19.40;82.00;;;;;;10492929;28;20035;-59
2023/10/12 01:01:32;;;;;;;11.57;6.68;;;19.40;82.00;;;;;;10493059;28;20051;-59
2023/10/12 01:06:33;;;;;;;7.75;6.80;;;19.40;82.00;;;;;;10474794;28;20481;-59
2023/10/12 01:11:36;;;;;;;8.43;7.05;;;19.40;82.00;;;;;;10491874;28;20029;-59
2023/10/12 01:16:54;;;;;;;8.90;7.00;;;19.40;82.00;;;;;;10485541;28;20045;-59
2023/10/12 01:21:55;;;;;;;8.30;6.35;;;19.40;82.00;;;;;;10492202;28;20078;-59
2023/10/12 01:26:57;;;;;;;9.63;7.60;;;19.40;82.00;;;;;;10491434;28;20345;-59
2023/10/12 01:47:41;;;;;;;9.02;7.82;;;19.40;82.00;;;;;;10491342;28;20044;-59
2023/10/12 01:52:44;;;;;;;9.30;7.18;;;19.40;82.00;;;;;;10491207;28;20032;-59
2023/10/12 01:57:53;;;;;;;10.13;8.07;;;19.40;82.10;;;;;;10473426;28;20838;-59
2023/10/12 02:03:12;;;;;;;9.52;7.03;;;19.40;82.00;;;;;;10490949;28;20268;-59
2023/10/12 02:08:17;;;;;;;9.10;7.57;;;19.40;82.00;;;;;;10490975;28;20028;-59
2023/10/12 02:13:20;;;;;;;9.00;7.03;;;19.40;82.00;;;;;;10473230;28;20067;-60
2023/10/12 02:18:22;;;;;;;8.43;6.55;;;19.40;81.90;;;;;;10490757;28;20094;-59
2023/10/12 02:23:23;;;;;;;8.57;7.32;;;19.40;82.00;;;;;;10490449;28;20246;-59
2023/10/12 02:28:24;;;;;;;8.25;7.10;;;19.40;82.00;;;;;;10490715;28;20157;-66
2023/10/12 02:33:28;;;;;;;8.48;7.22;;;19.40;82.00;;;;;;10490254;28;20025;-59
2023/10/12 02:38:28;;;;;;;9.80;7.32;;;19.40;82.00;;;;;;10490965;28;20173;-59
2023/10/12 02:43:32;;;;;;;8.55;7.75;;;19.40;81.90;;;;;;10490012;28;20033;-59
2023/10/12 02:48:36;;;;;;;8.00;7.03;;;19.40;82.00;;;;;;10494147;28;20036;-60
2023/10/12 02:53:39;;;;;;;9.98;7.80;;;19.40;81.90;;;;;;10497775;28;20104;-59
2023/10/12 02:58:44;;;;;;;9.82;7.47;;;19.40;81.90;;;;;;10487660;28;20036;-59
2023/10/12 03:03:48;;;;;;;9.98;7.00;;;19.40;81.90;;;;;;10497633;28;20137;-59
2023/10/12 03:14:00;;;;;;;8.93;7.40;;;19.40;81.90;;;;;;10496912;28;20404;-59
2023/10/12 03:19:16;;;;;;;7.78;6.38;;;19.30;81.90;;;;;;10495934;28;20059;-59
2023/10/12 03:24:21;;;;;;;7.65;6.28;;;19.30;81.90;;;;;;10495766;28;20081;-59
2023/10/12 03:29:25;;;;;;;8.60;7.75;;;19.40;81.90;;;;;;10495483;28;20047;-59
2023/10/12 03:39:58;;;;;;;8.98;7.28;;;19.50;82.10;;;;;;10493069;28;20476;-59
2023/10/12 03:45:10;;;;;;;9.25;6.35;;;19.50;82.00;;;;;;10493628;28;20031;-60
2023/10/12 03:50:17;;;;;;;8.60;7.25;;;19.50;82.00;;;;;;10479196;28;20349;-60
2023/10/12 04:00:25;;;;;;;8.68;7.38;;;19.50;82.00;;;;;;10494951;28;20051;-59
2023/10/12 04:21:05;;;;;;;8.27;6.33;;;19.40;81.80;;;;;;10495190;28;20052;-60
2023/10/12 04:31:49;;;;;;;;;;;19.40;81.90;;;;;;10495197;28;20064;-59
2023/10/12 04:46:47;;;;;;;8.20;5.97;;;19.40;81.90;;;;;;10475728;28;20037;-60
2023/10/12 04:52:03;;;;;;;8.25;6.38;;;19.40;81.90;;;;;;10475297;28;20115;-59
2023/10/12 05:02:21;;;;;;;8.25;7.15;;;19.30;81.80;;;;;;10492876;28;20033;-60
2023/10/12 05:12:24;;;;;;;12.23;6.60;;;19.40;82.20;;;;;;10491903;28;20041;-59
2023/10/12 05:17:24;;;;;;;8.13;5.95;;;19.60;81.90;;;;;;10474191;28;20411;-59
2023/10/12 05:22:25;;;;;;;10.63;6.45;;;19.60;81.90;;;;;;10474001;28;20038;-58
2023/10/12 05:27:28;;;;;;;12.75;6.57;;;19.60;82.00;;;;;;10491989;28;20037;-59
2023/10/12 05:32:43;;;;;;;19.10;8.18;;;19.60;82.00;;;;;;10491656;28;20025;-58
2023/10/12 05:37:49;;;;;;;12.18;6.93;;;19.60;81.90;;;;;;10486267;28;20474;-59
2023/10/12 05:42:50;;;;;;;12.60;6.30;;;19.60;81.70;;;;;;10471003;28;20039;-58
2023/10/12 05:47:54;;;;;;;10.15;6.22;;;19.60;81.80;;;;;;10488249;28;20400;-60
2023/10/12 05:52:59;;;;;;;13.88;6.93;;;19.60;82.00;;;;;;10488497;28;20158;-58
2023/10/12 05:58:11;;;;;;;11.93;6.25;;;19.60;82.10;;;;;;10483328;28;20033;-60
2023/10/12 06:03:20;;;;;;;13.13;7.43;;;19.50;82.00;;;;;;10484677;28;20029;-59
2023/10/12 06:08:25;;;;;;;17.55;8.10;;;19.50;82.40;;;;;;10488003;28;20113;-59
2023/10/12 06:13:39;;;;;;;20.60;7.63;;;19.60;82.50;;;;;;10488819;28;20031;-59
2023/10/12 06:18:44;;;;;;;14.20;6.68;;;19.60;81.90;;;;;;10488331;28;20376;-61
2023/10/12 06:23:50;;;;;;;15.73;6.55;;;19.50;82.20;;;;;;10492727;28;20118;-60
2023/10/12 06:28:50;;;;;;;14.75;7.32;;;19.50;82.30;;;;;;10490718;28;20048;-60
2023/10/12 06:33:55;;;;;;;13.60;6.82;;;19.50;83.10;;;;;;10484413;28;20028;-60
2023/10/12 06:44:27;;;;;;;13.75;6.50;;;19.40;82.20;;;;;;10498475;28;20040;-61
2023/10/12 06:49:33;;;;;;;17.00;6.13;;;19.40;82.10;;;;;;10480202;28;20059;-60
2023/10/12 06:59:37;;;;;;;11.00;5.75;;;19.40;81.90;;;;;;10496814;28;20044;-61
2023/10/12 07:04:38;;;;;;;15.50;5.78;;;19.40;81.80;;;;;;10496404;28;20410;-60
2023/10/12 07:09:39;;;;;;;9.80;4.70;;;19.30;81.70;;;;;;10496004;28;20027;-60
2023/10/12 07:14:52;;;;;;;9.38;4.93;;;19.30;81.70;;;;;;10478168;28;20035;-60
2023/10/12 07:19:56;;;;;;;16.35;5.30;;;19.30;81.60;;;;;;10476874;28;20067;-61
2023/10/12 07:24:59;;;;;;;7.57;4.30;;;19.30;81.60;;;;;;10493036;28;20025;-61
2023/10/12 07:30:14;;;;;;;8.73;5.30;;;19.30;81.50;;;;;;10475043;28;20055;-60
2023/10/12 07:35:31;;;;;;;8.77;4.68;;;19.30;81.50;;;;;;10477723;28;20028;-61
2023/10/12 07:40:37;;;;;;;8.23;4.35;;;19.20;81.40;;;;;;10492731;28;20037;-60
2023/10/12 07:45:40;;;;;;;5.82;3.85;;;19.20;81.30;;;;;;10492600;28;20078;-61
2023/10/12 07:50:47;;;;;;;5.82;3.58;;;19.20;81.20;;;;;;10492556;28;20056;-60
2023/10/12 07:56:00;;;;;;;4.05;3.50;;;19.20;81.20;;;;;;10474985;28;20687;-61
2023/10/12 08:06:29;;;;;;;6.10;3.72;;;19.20;81.10;;;;;;10492120;28;20026;-60
2023/10/12 08:11:34;;;;;;;5.85;3.97;;;19.20;81.10;;;;;;10491995;28;20460;-61
2023/10/12 08:16:40;;;;;;;4.70;3.33;;;19.20;81.00;;;;;;10437874;28;1065347;-61
2023/10/12 08:21:43;;;;;;;6.70;3.28;;;19.20;81.00;;;;;;10493614;28;20511;-60
2023/10/12 08:31:45;;;;;;;5.50;3.03;;;19.20;80.90;;;;;;10493048;28;20369;-61
2023/10/12 08:47:44;;;;;;;4.88;2.50;;;19.20;80.90;;;;;;10491578;28;20041;-61
2023/10/12 08:52:50;;;;;;;5.75;2.47;;;19.20;80.90;;;;;;10477217;28;20020;-61
2023/10/12 08:58:11;;;;;;;4.45;2.50;;;19.20;80.80;;;;;;10475045;28;20025;-60
2023/10/12 09:13:34;;;;;;;4.75;1.90;;;19.10;80.70;;;;;;10474055;28;20081;-61
2023/10/12 09:24:28;;;;;;;4.95;2.05;;;19.10;80.70;;;;;;10402965;28;20052;-60
2023/10/12 09:29:35;;;;;;;2.45;1.50;;;19.20;80.70;;;;;;10350139;28;20104;-60
2023/10/12 09:34:43;;;;;;;3.75;2.25;;;19.20;80.70;;;;;;10352946;28;20397;-60
2023/10/12 09:39:45;;;;;;;3.70;1.80;;;19.10;80.70;;;;;;10361287;28;20046;-60
2023/10/12 09:44:50;;;;;;;3.40;2.10;;;19.10;80.60;;;;;;10361226;28;20590;-61
2023/10/12 09:49:58;;;;;;;3.20;1.90;;;19.10;80.60;;;;;;10344539;28;20033;-60
2023/10/12 09:55:23;;;;;;;3.05;1.40;;;19.10;80.60;;;;;;10359848;28;20130;-61
2023/10/12 10:00:28;;;;;;;3.40;1.90;;;19.10;80.60;;;;;;10479148;28;20070;-60
2023/10/12 10:05:51;;;;;;;3.92;2.15;;;19.10;81.20;;;;;;10456123;28;20082;-61
2023/10/12 10:10:57;;;;;;;2.40;1.52;;;19.10;80.60;;;;;;10474459;28;20376;-61
2023/10/12 10:15:59;;;;;;;2.65;1.50;;;19.10;80.50;;;;;;10472779;28;20475;-61
2023/10/12 10:21:05;;;;;;;6.00;2.00;;;19.10;80.60;;;;;;10471935;28;20029;-61
2023/10/12 10:26:23;;;;;;;4.18;2.00;;;19.10;80.50;;;;;;10455756;28;20033;-60
2023/10/12 10:31:32;;;;;;;2.45;1.17;;;19.10;80.50;;;;;;10477202;28;20024;-60
2023/10/12 10:36:37;;;;;;;2.78;1.67;;;19.10;80.50;;;;;;10489393;28;20056;-60
2023/10/12 10:41:46;;;;;;;2.67;1.33;;;19.10;80.50;;;;;;10489187;28;20154;-61
2023/10/12 10:46:54;;;;;;;2.50;1.40;;;19.10;80.50;;;;;;10489556;28;20072;-60
2023/10/12 10:52:38;;;;;;;2.53;1.40;;;19.10;80.50;;;;;;10488711;28;20020;-61
2023/10/12 10:57:37;;;;;;;3.95;1.77;;;19.10;80.50;;;;;;10466621;28;20040;-61
2023/10/12 11:02:38;;;;;;;1.88;1.10;;;19.10;80.60;;;;;;10466436;28;20028;-60
2023/10/12 11:07:39;;;;;;;2.65;1.50;;;19.10;81.20;;;;;;10471725;28;20698;-60
2023/10/12 11:12:40;;;;;;;1.40;0.85;;;19.10;80.60;;;;;;10478369;28;20109;-60
2023/10/12 11:18:05;;;;;;;1.63;0.88;;;19.10;80.60;;;;;;10478561;28;20052;-61
2023/10/12 11:23:08;;;;;;;2.28;1.35;;;19.10;80.60;;;;;;10481061;28;20074;-60
2023/10/12 11:28:22;;;;;;;2.45;1.10;;;19.10;81.10;;;;;;10478218;28;20078;-61
2023/10/12 11:33:29;;;;;;;2.17;1.73;;;19.10;80.50;;;;;;10495565;28;20027;-59
2023/10/12 11:38:30;;;;;;;2.17;1.33;;;19.10;80.50;;;;;;10495655;28;20036;-59
2023/10/12 11:43:50;;;;;;;2.75;0.90;;;19.10;80.50;;;;;;10477072;28;20430;-60
2023/10/12 11:49:04;;;;;;;;;;;19.10;80.50;;;;;;10495819;28;20418;-60
2023/10/12 11:54:06;;;;;;;2.60;1.35;;;19.10;80.40;;;;;;10476372;28;20455;-59
2023/10/12 11:59:13;;;;;;;1.48;1.30;;;19.10;80.40;;;;;;10494589;28;20028;-59
2023/10/12 12:04:23;;;;;;;2.20;1.20;;;19.10;80.40;;;;;;10477465;28;20021;-60
2023/10/12 12:09:27;;;;;;;2.38;1.30;;;19.10;80.40;;;;;;10476787;28;20081;-59
2023/10/12 12:14:28;;;;;;;2.92;1.40;;;19.10;80.40;;;;;;10493747;28;20025;-59
2023/10/12 12:19:33;;;;;;;2.88;1.58;;;19.10;80.40;;;;;;10492466;28;20040;-59
2023/10/12 12:24:33;;;;;;;2.25;1.50;;;19.10;80.40;;;;;;10475732;28;20046;-59
2023/10/12 12:29:34;;;;;;;2.10;1.20;;;19.10;80.40;;;;;;10475407;28;20028;-59
2023/10/12 12:34:47;;;;;;;2.72;1.60;;;19.10;80.40;;;;;;10491842;28;20036;-59
2023/10/12 12:45:11;;;;;;;2.47;1.38;;;19.10;80.40;;;;;;10477718;28;20068;-59
2023/10/12 12:50:11;;;;;;;2.55;1.70;;;19.10;80.40;;;;;;10492657;28;20021;-59
2023/10/12 12:55:18;;;;;;;2.25;1.70;;;19.10;80.50;;;;;;10492002;28;20044;-59
2023/10/12 13:00:21;;;;;;;2.90;1.70;;;19.10;80.50;;;;;;10492145;28;20021;-59
2023/10/12 13:05:22;;;;;;;3.63;1.83;;;19.00;80.40;;;;;;10474121;28;20028;-60
2023/10/12 13:10:25;;;;;;;2.55;1.50;;;19.10;80.50;;;;;;10491662;28;20024;-60
2023/10/12 13:15:26;;;;;;;2.70;1.95;;;19.00;80.50;;;;;;10490826;28;20020;-60
2023/10/12 13:20:29;;;;;;;3.40;1.70;;;19.10;80.50;;;;;;10473806;28;20123;-60
2023/10/12 13:25:30;;;;;;;3.67;1.75;;;19.00;80.50;;;;;;10473290;28;20039;-59
2023/10/12 13:30:31;;;;;;;2.70;1.75;;;19.10;80.60;;;;;;10490946;28;20024;-60
2023/10/12 13:40:48;;;;;;;3.63;2.70;;;19.00;80.60;;;;;;10490874;28;20040;-60
2023/10/12 13:45:51;;;;;;;4.38;2.50;;;19.10;80.60;;;;;;10455733;28;20549;-60
2023/10/12 13:51:02;;;;;;;2.78;2.10;;;19.00;80.60;;;;;;10473092;28;20032;-59
2023/10/12 13:56:07;;;;;;;3.28;2.53;;;19.00;80.60;;;;;;10489966;28;20032;-60
2023/10/12 14:01:14;;;;;;;3.38;1.90;;;19.00;80.60;;;;;;10451511;28;20394;-60
2023/10/12 14:06:15;;;;;;;3.22;2.10;;;19.00;80.60;;;;;;10473048;28;20098;-60
2023/10/12 14:11:17;;;;;;;3.95;2.72;;;19.00;80.70;;;;;;10471943;28;20036;-60
2023/10/12 14:16:18;;;;;;;4.97;2.53;;;19.00;80.70;;;;;;10471735;28;20468;-60
2023/10/12 14:21:19;;;;;;;3.33;2.63;;;19.00;80.70;;;;;;10472335;28;20070;-60
2023/10/12 14:26:22;;;;;;;3.75;2.03;;;19.00;80.60;;;;;;10471161;28;20032;-59
2023/10/12 14:31:23;;;;;;;5.10;2.80;;;19.00;80.70;;;;;;10474531;28;20032;-60
2023/10/12 14:36:23;;;;;;;4.55;2.50;;;19.00;80.60;;;;;;10489255;28;20241;-60
2023/10/12 14:41:25;;;;;;;4.40;1.98;;;19.00;80.70;;;;;;10489533;28;20513;-59
2023/10/12 14:46:29;;;;;;;2.83;2.05;;;19.00;80.70;;;;;;10496048;28;20064;-60
2023/10/12 14:51:30;;;;;;;3.20;2.22;;;19.00;80.60;;;;;;10497254;28;20542;-60
2023/10/12 14:56:31;;;;;;;4.13;2.38;;;19.00;80.50;;;;;;10478378;28;20071;-60
2023/10/12 15:01:32;;;;;;;4.70;2.60;;;19.00;80.60;;;;;;10468820;28;20028;-59
2023/10/12 15:06:34;;;;;;;5.68;2.78;;;19.00;80.80;;;;;;10495037;28;20464;-57
2023/10/12 15:11:34;;;;;;;7.72;3.08;;;19.20;81.10;;;;;;10478707;28;20553;-58
2023/10/12 15:16:35;;;;;;;7.57;3.15;;;19.40;81.00;;;;;;10479533;28;20057;-57
2023/10/12 15:21:36;;;;;;;14.10;3.33;;;19.40;80.80;;;;;;10497033;28;20140;-58
2023/10/12 15:26:37;;;;;;;6.00;2.53;;;19.40;80.50;;;;;;10477302;28;20051;-58
2023/10/12 15:31:39;;;;;;;12.75;3.40;;;19.40;80.90;;;;;;10495180;28;20048;-59
2023/10/12 15:36:40;;;;;;;7.07;4.00;;;19.50;80.90;;;;;;10495750;28;20067;-58
2023/10/12 15:41:40;;;;;;;8.32;2.83;;;19.50;80.70;;;;;;10495261;28;20034;-58
2023/10/12 15:46:42;;;;;;;7.63;2.88;;;19.50;80.50;;;;;;10477156;28;20029;-59
2023/10/12 15:51:43;;;;;;;9.93;4.10;;;19.70;80.60;;;;;;10495606;28;20033;-57
2023/10/12 15:56:43;;;;;;;10.52;3.38;;;19.60;80.70;;;;;;10481490;28;20029;-57
2023/10/12 16:01:44;;;;;;;7.53;2.72;;;19.70;80.50;;;;;;10496051;28;20040;-58
2023/10/12 16:06:46;;;;;;;18.00;3.58;;;19.80;80.60;;;;;;10494284;28;20037;-58
2023/10/12 16:11:49;;;;;;;25.75;3.90;;;20.10;82.20;;;;;;10477262;28;20036;-58
2023/10/12 16:16:50;;;;;;;14.43;3.88;;;20.10;82.10;;;;;;10494753;28;20056;-59
2023/10/12 16:21:51;;;;;;;10.02;3.88;;;19.90;82.00;;;;;;10494967;28;20104;-55
2023/10/12 16:26:52;;;;;;;11.60;4.13;;;19.80;81.60;;;;;;10494168;28;20020;-59
2023/10/12 16:31:53;;;;;;;14.25;4.10;;;19.80;81.90;;;;;;10476229;28;20033;-58
2023/10/12 16:36:56;;;;;;;35.83;7.60;;;19.80;81.80;;;;;;10490954;28;20028;-58
2023/10/12 16:41:57;;;;;;;22.02;6.43;;;19.70;81.80;;;;;;10484799;28;20031;-58
2023/10/12 16:46:58;;;;;;;19.08;5.03;;;19.60;82.20;;;;;;10475629;28;20562;-58
2023/10/12 16:52:00;;;;;;;24.60;6.22;;;19.50;82.50;;;;;;10469384;28;20091;-58
2023/10/12 16:57:01;;;;;;;33.80;7.18;;;19.50;82.70;;;;;;10462816;28;20021;-59
2023/10/12 17:02:02;;;;;;;33.42;5.78;;;19.50;82.90;;;;;;10474599;28;20064;-59
2023/10/12 17:07:02;;;;;;;25.00;6.50;;;19.50;82.70;;;;;;10487696;28;20020;-57
2023/10/12 17:12:07;;;;;;;24.15;5.97;;;19.50;82.70;;;;;;10486701;28;20508;-58
2023/10/12 17:17:08;;;;;;;23.20;6.10;;;19.50;82.80;;;;;;10468931;28;20048;-59
2023/10/12 17:22:09;;;;;;;22.70;6.18;;;19.50;82.90;;;;;;10491953;28;20386;-58
2023/10/12 17:27:11;;;;;;;24.77;6.05;;;19.50;82.90;;;;;;10473153;28;20032;-59
2023/10/12 17:32:12;;;;;;;21.77;6.93;;;19.50;83.40;;;;;;10463815;28;20099;-60
2023/10/12 17:37:12;;;;;;;17.00;5.20;;;19.50;82.80;;;;;;10488722;28;20039;-58
2023/10/12 17:42:13;;;;;;;18.52;5.65;;;19.50;82.80;;;;;;10491313;28;20028;-58
2023/10/12 17:47:14;;;;;;;15.70;5.72;;;19.50;82.60;;;;;;10480915;28;20138;-58
2023/10/12 17:52:17;;;;;;;12.07;5.45;;;19.40;82.30;;;;;;10481377;28;20591;-58
2023/10/12 17:57:18;;;;;;;13.80;5.07;;;19.40;82.50;;;;;;10446017;28;20483;-58
2023/10/12 18:02:20;;;;;;;13.55;6.85;;;19.40;82.60;;;;;;10479523;28;20191;-58
2023/10/12 18:07:26;;;;;;;13.25;4.55;;;19.40;83.20;;;;;;10480151;28;20033;-57
2023/10/12 18:12:27;;;;;;;15.10;4.65;;;19.40;82.50;;;;;;10480061;28;20502;-58
2023/10/12 18:17:27;;;;;;;22.60;5.63;;;19.40;82.60;;;;;;10477763;28;20052;-57
2023/10/12 18:22:28;;;;;;;10.25;4.22;;;19.40;82.60;;;;;;10494095;28;20602;-57
2023/10/12 18:27:29;;;;;;;14.05;5.63;;;19.40;82.60;;;;;;10495161;28;20058;-58
2023/10/12 18:32:29;;;;;;;10.80;4.45;;;19.40;82.70;;;;;;10489955;28;20021;-58
2023/10/12 18:37:30;;;;;;;17.33;5.10;;;19.40;82.60;;;;;;10491267;28;20033;-58
2023/10/12 18:42:32;;;;;;;15.05;4.35;;;19.40;82.60;;;;;;10488404;28;20032;-58
2023/10/12 18:47:33;;;;;;;8.77;4.68;;;19.40;82.60;;;;;;10487151;28;20486;-58
2023/10/12 18:52:35;;;;;;;9.90;4.38;;;19.40;82.70;;;;;;10471133;28;20111;-58
2023/10/12 18:57:41;;;;;;;11.85;4.35;;;19.40;82.70;;;;;;10480214;28;20127;-58
2023/10/12 19:02:44;;;;;;;7.63;4.18;;;19.40;82.70;;;;;;10491351;28;20115;-58
2023/10/12 19:07:44;;;;;;;15.63;4.63;;;19.40;82.70;;;;;;10496999;28;20108;-57
2023/10/12 19:12:45;;;;;;;13.70;4.00;;;19.40;82.40;;;;;;10479628;28;20058;-57
2023/10/12 19:17:47;;;;;;;7.95;4.10;;;19.40;82.20;;;;;;10478459;28;20036;-58
2023/10/12 19:22:49;;;;;;;9.63;3.97;;;19.40;82.40;;;;;;10496296;28;20483;-58
2023/10/12 19:27:50;;;;;;;10.93;4.15;;;19.40;82.60;;;;;;10494979;28;20517;-58
2023/10/12 19:32:51;;;;;;;9.95;4.25;;;19.30;82.50;;;;;;10487183;28;20077;-57
2023/10/12 19:37:52;;;;;;;10.07;4.45;;;19.30;82.50;;;;;;10465798;28;20187;-58
2023/10/12 19:42:56;;;;;;;10.23;4.50;;;19.30;82.50;;;;;;10495127;28;20031;-58
2023/10/12 19:48:02;;;;;;;8.73;3.85;;;19.20;82.40;;;;;;10493331;28;20038;-58
2023/10/12 19:53:05;;;;;;;6.00;3.63;;;19.20;82.50;;;;;;10496233;28;20024;-58
2023/10/12 19:58:08;;;;;;;9.05;4.43;;;19.20;82.50;;;;;;10495647;28;20101;-58
2023/10/12 20:08:11;;;;;;;6.47;4.15;;;19.20;82.50;;;;;;10495560;28;20383;-58
2023/10/12 20:13:11;;;;;;;10.13;4.53;;;19.20;82.40;;;;;;10495446;28;20028;-58
2023/10/12 20:18:13;;;;;;;7.20;4.50;;;19.20;82.40;;;;;;10495153;28;20052;-58
2023/10/12 20:23:14;;;;;;;5.32;3.97;;;19.20;82.40;;;;;;10495214;28;20475;-58
2023/10/12 20:28:17;;;;;;;9.18;3.70;;;19.20;82.30;;;;;;10493890;28;20082;-57
2023/10/12 20:33:20;;;;;;;6.50;4.70;;;19.20;82.30;;;;;;10494704;28;20029;-58
2023/10/12 20:38:20;;;;;;;7.50;4.25;;;19.20;82.30;;;;;;10476028;28;20032;-57
2023/10/12 20:43:22;;;;;;;7.20;3.35;;;19.20;82.30;;;;;;10493115;28;20636;-57
2023/10/12 20:48:27;;;;;;;5.25;3.75;;;19.20;82.30;;;;;;10493706;28;20033;-57
2023/10/12 20:53:35;;;;;;;7.28;4.10;;;19.20;82.20;;;;;;10493626;28;20024;-58
2023/10/12 20:58:44;;;;;;;4.82;3.05;;;19.10;82.20;;;;;;10475374;28;20029;-58
2023/10/12 21:03:53;;;;;;;7.73;4.93;;;19.20;82.20;;;;;;10493322;28;20032;-58
2023/10/12 21:08:57;;;;;;;8.00;4.03;;;19.10;82.20;;;;;;10492715;28;20063;-57
2023/10/12 21:13:58;;;;;;;6.30;3.88;;;19.10;82.10;;;;;;10492913;28;20020;-58
2023/10/12 21:19:13;;;;;;;5.90;3.80;;;19.10;82.10;;;;;;10491633;28;20090;-58
2023/10/12 21:24:21;;;;;;;5.22;3.50;;;19.10;82.10;;;;;;10492369;28;20032;-57
2023/10/12 21:29:22;;;;;;;7.53;4.82;;;19.10;82.10;;;;;;10491794;28;20073;-58
2023/10/12 21:34:25;;;;;;;8.05;3.83;;;19.10;82.10;;;;;;10492189;28;20509;-57
2023/10/12 21:39:35;;;;;;;7.43;4.32;;;19.10;82.10;;;;;;10491567;28;20039;-58
2023/10/12 21:44:36;;;;;;;6.50;4.05;;;19.10;82.10;;;;;;10491764;28;20032;-57
2023/10/12 21:49:38;;;;;;;6.28;3.20;;;19.10;82.10;;;;;;10491510;28;20456;-58
2023/10/12 21:54:40;;;;;;;4.35;3.40;;;19.10;82.00;;;;;;10491344;28;20082;-58
2023/10/12 21:59:41;;;;;;;5.43;3.65;;;19.10;82.10;;;;;;10491138;28;20090;-58
2023/10/12 22:04:45;;;;;;;5.43;3.60;;;19.10;82.10;;;;;;10473377;28;20025;-58
2023/10/12 22:09:46;;;;;;;4.95;3.80;;;19.10;82.10;;;;;;10490993;28;20020;-57
2023/10/12 22:14:51;;;;;;;6.95;3.63;;;19.10;82.00;;;;;;10490968;28;20054;-57
2023/10/12 22:19:52;;;;;;;4.78;3.63;;;19.10;82.00;;;;;;10490743;28;20043;-58
2023/10/12 22:24:54;;;;;;;4.72;3.47;;;19.10;82.00;;;;;;10491141;28;20021;-58
2023/10/12 22:29:54;;;;;;;6.68;4.32;;;19.10;82.00;;;;;;10490450;28;20032;-58
2023/10/12 22:34:55;;;;;;;6.05;4.10;;;19.10;82.00;;;;;;10490852;28;20086;-58
2023/10/12 22:39:56;;;;;;;5.57;3.95;;;19.10;82.00;;;;;;10490367;28;20211;-57
2023/10/12 22:44:56;;;;;;;4.95;3.55;;;19.10;82.00;;;;;;10490547;28;20050;-58
2023/10/12 22:49:57;;;;;;;5.40;3.80;;;19.10;82.00;;;;;;10490147;28;20037;-57
2023/10/12 22:54:59;;;;;;;6.07;3.70;;;19.10;81.90;;;;;;10490249;28;20036;-58
2023/10/12 23:00:01;;;;;;;3.97;3.25;;;19.10;82.00;;;;;;10490000;28;20530;-58
2023/10/12 23:05:04;;;;;;;4.53;3.20;;;19.10;82.00;;;;;;10492962;28;20067;-57
2023/10/12 23:10:06;;;;;;;7.95;4.63;;;19.10;82.60;;;;;;10497325;28;20032;-58
2023/10/12 23:15:11;;;;;;;7.55;4.57;;;19.10;82.00;;;;;;10497499;28;20043;-58
2023/10/12 23:20:15;;;;;;;8.05;3.38;;;19.10;81.90;;;;;;10496931;28;20056;-58
2023/10/12 23:25:16;;;;;;;5.07;3.42;;;19.00;81.90;;;;;;10497403;28;20112;-58
2023/10/12 23:30:22;;;;;;;5.72;3.47;;;19.00;81.80;;;;;;10496366;28;20020;-57
2023/10/12 23:35:45;;;;;;;5.85;3.83;;;19.00;81.80;;;;;;10462903;28;20028;-57
2023/10/12 23:40:47;;;;;;;5.88;3.70;;;19.00;81.90;;;;;;10496202;28;20490;-58
2023/10/12 23:45:58;;;;;;;5.88;4.20;;;19.00;81.80;;;;;;10495709;28;20411;-57
2023/10/12 23:51:02;;;;;;;4.63;3.53;;;19.00;81.90;;;;;;10495902;28;20040;-57
2023/10/12 23:56:09;;;;;;;5.13;2.97;;;19.00;81.90;;;;;;10478712;28;20036;-57
